AMS weather

Amsterdam Airport Schiphol
Amsterdam, Noord-Holland, Netherlands

Public forecast

Using degrees Celsius for public forecast. Weather courtesy of forecast.io.

METAR (pilot weather report)

Retrieved 2019/04/23 09:25 UTC (5 minutes ago):

EHAM 230925Z 09014KT 050V120 CAVOK 17/07 Q1000 NOSIG

TAF (pilot weather forecast)

Retrieved 2019/04/23 06:27 UTC (3 hours ago):

TAF TAF EHAM 230437Z 2306/2412 10013KT CAVOK TEMPO 2310/2317 11015G25KT BECMG 2317/2319 07010KT BECMG 2400/2403 11008KT BECMG 2408/2410 16012KT TEMPO 2410/2412 17016G28KT